createdAt,value
2023-03-06T00:01:03.778Z,3.20
2023-03-06T00:02:06.914Z,3.16
2023-03-06T00:03:09.476Z,3.06
2023-03-06T00:04:12.996Z,2.97
2023-03-06T00:05:15.969Z,2.99
2023-03-06T00:06:18.291Z,2.90
2023-03-06T00:07:20.612Z,2.85
2023-03-06T00:08:24.308Z,2.93
2023-03-06T00:09:26.598Z,3.01
2023-03-06T00:10:30.732Z,2.95
2023-03-06T00:11:33.123Z,2.89
2023-03-06T00:12:35.379Z,2.84
2023-03-06T00:13:38.469Z,2.87
2023-03-06T00:14:40.850Z,2.89
2023-03-06T00:15:43.139Z,2.85
2023-03-06T00:16:45.523Z,2.78
2023-03-06T00:17:48.713Z,2.80
2023-03-06T00:18:51.908Z,2.80
2023-03-06T00:19:54.139Z,2.91
2023-03-06T00:20:56.367Z,2.95
2023-03-06T00:21:58.782Z,3.00
2023-03-06T00:23:01.354Z,2.99
2023-03-06T00:24:03.837Z,2.91
2023-03-06T00:25:07.510Z,2.85
2023-03-06T00:26:10.209Z,2.79
2023-03-06T00:27:13.970Z,2.80
2023-03-06T00:28:19.040Z,2.78
2023-03-06T00:29:21.264Z,2.76
2023-03-06T00:30:24.836Z,2.81
2023-03-06T00:31:27.118Z,2.74
2023-03-06T00:32:29.600Z,2.74
2023-03-06T00:33:31.962Z,2.74
2023-03-06T00:34:34.253Z,2.76
2023-03-06T00:35:38.769Z,2.80
2023-03-06T00:36:41.736Z,2.74
2023-03-06T00:37:45.153Z,2.70
2023-03-06T00:38:47.456Z,2.75
2023-03-06T00:39:49.682Z,2.71
2023-03-06T00:40:51.986Z,2.81
2023-03-06T00:41:54.322Z,2.86
2023-03-06T00:42:56.584Z,2.94
2023-03-06T00:43:58.866Z,2.90
2023-03-06T00:45:01.112Z,2.91
2023-03-06T00:46:03.888Z,2.91
2023-03-06T00:47:06.359Z,2.92
2023-03-06T00:48:09.149Z,2.86
2023-03-06T00:49:11.319Z,2.87
2023-03-06T00:50:13.756Z,2.86
2023-03-06T00:51:17.177Z,2.95
2023-03-06T00:52:19.883Z,3.02
2023-03-06T00:53:22.113Z,3.06
2023-03-06T00:54:24.676Z,3.10
2023-03-06T00:55:26.980Z,3.08
2023-03-06T00:56:30.021Z,3.12
2023-03-06T00:57:32.326Z,3.06
2023-03-06T00:58:34.998Z,3.03
2023-03-06T00:59:37.257Z,3.04
2023-03-06T01:00:39.454Z,3.13
2023-03-06T01:01:42.213Z,3.16
2023-03-06T01:02:44.626Z,3.09
2023-03-06T01:03:46.961Z,2.94
2023-03-06T01:04:49.346Z,2.78
2023-03-06T01:05:51.602Z,2.79
2023-03-06T01:06:54.024Z,2.95
2023-03-06T01:07:56.336Z,3.02
2023-03-06T01:08:58.593Z,3.07
2023-03-06T01:10:00.879Z,3.06
2023-03-06T01:11:03.121Z,2.96
2023-03-06T01:12:05.565Z,2.94
2023-03-06T01:13:09.596Z,2.84
2023-03-06T01:14:11.977Z,2.88
2023-03-06T01:15:14.836Z,2.89
2023-03-06T01:16:19.009Z,2.96
2023-03-06T01:17:24.020Z,2.97
2023-03-06T01:18:26.314Z,2.92
2023-03-06T01:19:28.557Z,2.92
2023-03-06T01:20:31.197Z,2.90
2023-03-06T01:21:34.226Z,2.85
2023-03-06T01:22:36.493Z,2.84
2023-03-06T01:23:38.744Z,2.90
2023-03-06T01:24:40.955Z,2.89
2023-03-06T01:25:43.186Z,2.89
2023-03-06T01:26:45.485Z,2.86
2023-03-06T01:27:47.937Z,2.75
2023-03-06T01:28:50.098Z,2.75
2023-03-06T01:29:52.311Z,2.78
2023-03-06T01:30:54.526Z,2.84
2023-03-06T01:31:56.984Z,2.82
2023-03-06T01:32:59.350Z,2.81
2023-03-06T01:34:01.892Z,2.80
2023-03-06T01:35:04.356Z,2.78
2023-03-06T01:36:08.847Z,2.86
2023-03-06T01:37:11.108Z,2.83
2023-03-06T01:38:14.004Z,2.83
2023-03-06T01:39:16.280Z,2.91
2023-03-06T01:40:18.524Z,2.95
2023-03-06T01:41:21.493Z,2.90
2023-03-06T01:42:23.900Z,2.88
2023-03-06T01:43:29.752Z,2.76
2023-03-06T01:44:32.046Z,2.76
2023-03-06T01:45:34.373Z,2.77
2023-03-06T01:46:44.613Z,2.73
2023-03-06T01:47:46.965Z,2.72
2023-03-06T01:48:54.843Z,2.74
2023-03-06T01:50:00.416Z,2.70
2023-03-06T01:51:02.722Z,2.61
2023-03-06T01:52:12.436Z,2.62
2023-03-06T01:53:15.331Z,2.59
2023-03-06T01:54:25.356Z,2.64
2023-03-06T01:55:34.116Z,2.72
2023-03-06T01:56:37.582Z,2.75
2023-03-06T01:57:50.072Z,2.73
2023-03-06T01:58:52.902Z,2.68
2023-03-06T02:02:11.295Z,2.57
2023-03-06T02:03:21.462Z,2.58
2023-03-06T02:04:24.556Z,2.59
2023-03-06T02:05:26.889Z,2.62
2023-03-06T02:06:29.139Z,2.57
2023-03-06T02:07:32.030Z,2.46
2023-03-06T02:08:34.440Z,2.34
2023-03-06T02:09:38.426Z,2.34
2023-03-06T02:11:05.719Z,2.41
2023-03-06T02:12:11.818Z,2.48
2023-03-06T02:13:14.024Z,2.50
2023-03-06T02:14:17.214Z,2.52
2023-03-06T02:15:23.463Z,2.47
2023-03-06T02:16:30.210Z,2.46
2023-03-06T02:17:34.811Z,2.49
2023-03-06T02:18:38.785Z,2.54
2023-03-06T02:20:22.588Z,2.39
2023-03-06T02:21:29.028Z,2.43
2023-03-06T02:22:46.281Z,2.41
2023-03-06T02:24:02.973Z,2.44
2023-03-06T02:25:30.371Z,2.35
2023-03-06T02:26:34.495Z,2.33
2023-03-06T02:27:36.759Z,2.28
2023-03-06T02:28:39.885Z,2.32
2023-03-06T02:29:44.421Z,2.31
2023-03-06T02:30:49.693Z,2.36
2023-03-06T02:31:52.298Z,2.38
2023-03-06T02:32:54.708Z,2.44
2023-03-06T02:34:15.928Z,2.50
2023-03-06T02:35:25.386Z,2.54
2023-03-06T02:36:27.855Z,2.57
2023-03-06T02:37:30.306Z,2.69
2023-03-06T02:38:41.010Z,2.68
2023-03-06T02:39:48.329Z,2.69
2023-03-06T02:40:52.296Z,2.73
2023-03-06T02:41:54.577Z,2.74
2023-03-06T02:42:59.297Z,2.78
2023-03-06T02:44:01.767Z,2.72
2023-03-06T02:45:07.477Z,2.82
2023-03-06T02:46:09.673Z,2.83
2023-03-06T02:47:11.890Z,2.79
2023-03-06T02:48:15.737Z,2.83
2023-03-06T02:49:17.970Z,2.71
2023-03-06T02:50:20.228Z,2.62
2023-03-06T02:51:23.890Z,2.62
2023-03-06T02:52:26.090Z,2.62
2023-03-06T02:53:28.639Z,2.64
2023-03-06T02:54:30.900Z,2.68
2023-03-06T02:55:33.993Z,2.78
2023-03-06T02:56:37.024Z,2.78
2023-03-06T02:57:39.367Z,2.77
2023-03-06T02:58:41.646Z,2.76
2023-03-06T02:59:43.869Z,2.83
2023-03-06T03:00:47.331Z,2.93
2023-03-06T03:01:49.548Z,2.88
2023-03-06T03:02:52.890Z,2.84
2023-03-06T03:03:55.535Z,2.83
2023-03-06T03:04:57.983Z,2.86
2023-03-06T03:06:00.902Z,2.74
2023-03-06T03:07:08.115Z,2.74
2023-03-06T03:08:10.952Z,2.73
2023-03-06T03:09:13.206Z,2.69
2023-03-06T03:10:16.285Z,2.74
2023-03-06T03:11:20.293Z,2.81
2023-03-06T03:12:23.168Z,2.89
2023-03-06T03:13:25.396Z,3.04
2023-03-06T03:14:27.756Z,2.99
2023-03-06T03:15:30.083Z,3.03
2023-03-06T03:16:33.163Z,3.05
2023-03-06T03:17:37.066Z,3.04
2023-03-06T03:18:39.368Z,3.05
2023-03-06T03:19:41.608Z,3.05
2023-03-06T03:20:43.964Z,3.05
2023-03-06T03:21:46.264Z,2.99
2023-03-06T03:22:53.737Z,3.00
2023-03-06T03:23:56.035Z,2.95
2023-03-06T03:25:01.114Z,2.96
2023-03-06T03:26:18.623Z,2.94
2023-03-06T03:27:28.260Z,2.98
2023-03-06T03:28:30.545Z,3.05
2023-03-06T03:29:33.005Z,3.06
2023-03-06T03:30:35.331Z,3.09
2023-03-06T03:31:37.773Z,3.00
2023-03-06T03:32:40.259Z,2.99
2023-03-06T03:33:42.649Z,2.96
2023-03-06T03:34:45.121Z,3.03
2023-03-06T03:35:56.730Z,2.95
2023-03-06T03:36:59.618Z,2.97
2023-03-06T03:38:02.729Z,3.00
2023-03-06T03:39:05.543Z,3.02
2023-03-06T03:40:10.173Z,3.08
2023-03-06T03:41:12.724Z,3.06
2023-03-06T03:42:15.066Z,3.17
2023-03-06T03:43:17.839Z,3.12
2023-03-06T03:44:20.120Z,3.14
2023-03-06T03:45:23.506Z,3.11
2023-03-06T03:46:26.149Z,3.10
2023-03-06T03:47:30.466Z,3.10
2023-03-06T03:48:32.937Z,3.05
2023-03-06T03:49:35.712Z,3.00
2023-03-06T03:50:38.792Z,2.94
2023-03-06T03:51:41.548Z,2.87
2023-03-06T03:52:43.941Z,2.85
2023-03-06T03:53:47.559Z,2.71
2023-03-06T03:54:53.446Z,2.59
2023-03-06T03:55:55.665Z,2.55
2023-03-06T03:56:57.996Z,2.47
2023-03-06T03:58:05.541Z,2.29
2023-03-06T03:59:08.425Z,2.25
2023-03-06T04:00:18.023Z,2.34
2023-03-06T04:01:30.153Z,2.44
2023-03-06T04:02:32.368Z,2.52
2023-03-06T04:03:43.956Z,2.40
2023-03-06T04:04:48.318Z,2.31
2023-03-06T04:05:53.926Z,2.31
2023-03-06T04:06:56.324Z,2.32
2023-03-06T04:08:01.231Z,2.22
2023-03-06T04:09:04.501Z,2.13
2023-03-06T04:10:08.444Z,2.12
2023-03-06T04:11:11.142Z,2.17
2023-03-06T04:12:13.362Z,2.26
2023-03-06T04:13:15.812Z,2.32
2023-03-06T04:14:20.793Z,2.33
2023-03-06T04:15:23.615Z,2.39
2023-03-06T04:16:25.958Z,2.50
2023-03-06T04:17:28.239Z,2.52
2023-03-06T04:18:31.286Z,2.54
2023-03-06T04:19:38.131Z,2.57
2023-03-06T04:20:40.351Z,2.56
2023-03-06T04:21:42.672Z,2.59
2023-03-06T04:22:45.948Z,2.57
2023-03-06T04:23:48.430Z,2.55
2023-03-06T04:24:50.794Z,2.63
2023-03-06T04:25:54.553Z,2.68
2023-03-06T04:26:57.744Z,2.74
2023-03-06T04:28:00.284Z,2.79
2023-03-06T04:29:04.008Z,2.77
2023-03-06T04:30:07.960Z,2.80
2023-03-06T04:31:13.019Z,2.80
2023-03-06T04:32:15.514Z,2.83
2023-03-06T04:33:18.169Z,2.75
2023-03-06T04:34:20.855Z,2.64
2023-03-06T04:35:23.288Z,2.52
2023-03-06T04:36:34.482Z,2.54
2023-03-06T04:37:41.539Z,2.51
2023-03-06T04:38:43.849Z,2.36
2023-03-06T04:39:46.678Z,2.35
2023-03-06T04:40:49.737Z,2.32
2023-03-06T04:41:52.114Z,2.34
2023-03-06T04:42:58.124Z,2.24
2023-03-06T04:44:00.439Z,2.28
2023-03-06T04:45:02.810Z,2.09
2023-03-06T04:46:05.489Z,2.19
2023-03-06T04:47:07.920Z,2.25
2023-03-06T04:48:14.355Z,2.27
2023-03-06T04:49:16.613Z,2.24
2023-03-06T04:50:19.305Z,2.24
2023-03-06T04:51:21.924Z,2.31
2023-03-06T04:52:24.107Z,2.15
2023-03-06T04:53:26.799Z,2.21
2023-03-06T04:54:29.286Z,2.20
2023-03-06T04:55:31.630Z,2.27
2023-03-06T04:56:34.504Z,2.30
2023-03-06T04:57:38.254Z,2.28
2023-03-06T04:58:40.813Z,2.09
2023-03-06T04:59:43.011Z,2.10
2023-03-06T05:00:45.317Z,2.19
2023-03-06T05:01:47.644Z,2.28
2023-03-06T05:02:51.081Z,2.36
2023-03-06T05:03:53.295Z,2.38
2023-03-06T05:04:55.551Z,2.41
2023-03-06T05:05:58.502Z,2.48
2023-03-06T05:07:00.839Z,2.47
2023-03-06T05:08:03.258Z,2.45
2023-03-06T05:09:05.650Z,2.51
2023-03-06T05:10:11.554Z,2.49
2023-03-06T05:11:13.844Z,2.36
2023-03-06T05:12:16.129Z,2.43
2023-03-06T05:13:18.458Z,2.42
2023-03-06T05:14:20.687Z,2.41
2023-03-06T05:15:23.733Z,2.26
2023-03-06T05:16:26.279Z,2.35
2023-03-06T05:17:28.530Z,2.43
2023-03-06T05:18:31.666Z,2.27
2023-03-06T05:19:33.913Z,2.22
2023-03-06T05:20:36.114Z,2.32
2023-03-06T05:21:38.383Z,2.40
2023-03-06T05:22:41.077Z,2.44
2023-03-06T05:23:43.295Z,2.50
2023-03-06T05:24:45.620Z,2.52
2023-03-06T05:25:47.898Z,2.49
2023-03-06T05:26:50.163Z,2.32
2023-03-06T05:27:52.419Z,2.32
2023-03-06T05:28:55.296Z,2.25
2023-03-06T05:29:57.799Z,2.15
2023-03-06T05:31:01.745Z,2.13
2023-03-06T05:32:05.820Z,2.18
2023-03-06T05:33:08.181Z,2.11
2023-03-06T05:34:14.219Z,2.17
2023-03-06T05:35:21.806Z,2.29
2023-03-06T05:36:25.118Z,2.34
2023-03-06T05:37:27.325Z,2.38
2023-03-06T05:38:29.668Z,2.37
2023-03-06T05:39:31.876Z,2.40
2023-03-06T05:40:34.251Z,2.43
2023-03-06T05:41:36.385Z,2.47
2023-03-06T05:42:38.651Z,2.39
2023-03-06T05:43:41.391Z,2.20
2023-03-06T05:44:43.822Z,2.26
2023-03-06T05:45:46.212Z,2.26
2023-03-06T05:46:49.793Z,2.19
2023-03-06T05:47:51.962Z,2.28
2023-03-06T05:48:55.302Z,2.30
2023-03-06T05:49:57.574Z,2.42
2023-03-06T05:51:01.136Z,2.40
2023-03-06T05:52:04.887Z,2.51
2023-03-06T05:53:07.093Z,2.58
2023-03-06T05:54:09.272Z,2.73
2023-03-06T05:55:12.662Z,2.78
2023-03-06T05:56:15.133Z,2.82
2023-03-06T05:57:19.968Z,2.81
2023-03-06T05:58:22.213Z,2.88
2023-03-06T05:59:28.102Z,2.89
2023-03-06T06:00:30.449Z,2.78
2023-03-06T06:01:32.716Z,2.77
2023-03-06T06:02:35.085Z,2.72
2023-03-06T06:03:37.484Z,2.60
2023-03-06T06:04:39.783Z,2.51
2023-03-06T06:05:42.215Z,2.51
2023-03-06T06:06:44.564Z,2.47
2023-03-06T06:07:46.876Z,2.57
2023-03-06T06:08:49.099Z,2.55
2023-03-06T06:09:53.034Z,2.29
2023-03-06T06:10:55.258Z,2.33
2023-03-06T06:12:00.627Z,2.35
2023-03-06T06:13:02.950Z,2.36
2023-03-06T06:14:05.189Z,2.42
2023-03-06T06:15:07.787Z,2.23
2023-03-06T06:16:19.377Z,2.33
2023-03-06T06:17:21.748Z,2.48
2023-03-06T06:18:24.006Z,2.66
2023-03-06T06:19:29.646Z,2.69
2023-03-06T06:20:31.899Z,2.56
2023-03-06T06:21:34.122Z,2.60
2023-03-06T06:22:41.240Z,2.53
2023-03-06T06:23:43.657Z,2.46
2023-03-06T06:24:45.973Z,2.41
2023-03-06T06:25:48.216Z,2.37
2023-03-06T06:26:55.234Z,2.39
2023-03-06T06:27:57.793Z,2.30
2023-03-06T06:29:00.396Z,2.31
2023-03-06T06:30:03.293Z,2.31
2023-03-06T06:31:12.761Z,2.53
2023-03-06T06:32:15.033Z,2.56
2023-03-06T06:33:17.210Z,2.42
2023-03-06T06:34:20.914Z,2.42
2023-03-06T06:35:23.419Z,2.43
2023-03-06T06:36:25.656Z,2.42
2023-03-06T06:37:27.873Z,2.47
2023-03-06T06:38:30.085Z,2.56
2023-03-06T06:39:32.286Z,2.50
2023-03-06T06:40:34.875Z,2.40
2023-03-06T06:41:56.967Z,2.41
2023-03-06T06:42:59.524Z,2.39
2023-03-06T06:44:08.773Z,2.49
2023-03-06T06:45:11.318Z,2.43
2023-03-06T06:46:44.583Z,2.56
2023-03-06T06:47:38.311Z,2.74
2023-03-06T06:48:40.607Z,2.73
2023-03-06T06:49:42.916Z,2.86
2023-03-06T06:50:45.254Z,2.95
2023-03-06T06:51:47.605Z,2.99
2023-03-06T06:52:49.783Z,2.97
2023-03-06T06:53:53.364Z,2.98
2023-03-06T06:54:55.681Z,2.94
2023-03-06T06:55:59.218Z,2.79
2023-03-06T06:57:01.639Z,2.87
2023-03-06T06:58:03.941Z,2.94
2023-03-06T06:59:16.028Z,3.07
2023-03-06T07:00:19.791Z,3.03
2023-03-06T07:01:22.343Z,2.92
2023-03-06T07:02:24.652Z,2.83
2023-03-06T07:03:26.924Z,2.80
2023-03-06T07:04:29.223Z,2.94
2023-03-06T07:05:31.396Z,2.91
2023-03-06T07:06:33.599Z,3.01
2023-03-06T07:07:37.971Z,3.18
2023-03-06T07:08:40.395Z,3.31
2023-03-06T07:09:42.714Z,3.23
2023-03-06T07:10:44.927Z,3.24
2023-03-06T07:11:47.110Z,2.96
2023-03-06T07:12:49.432Z,3.12
2023-03-06T07:13:51.721Z,3.02
2023-03-06T07:14:54.170Z,3.01
2023-03-06T07:15:56.441Z,3.30
2023-03-06T07:16:59.065Z,3.00
2023-03-06T07:18:01.438Z,3.04
2023-03-06T07:19:03.623Z,3.15
2023-03-06T07:20:07.109Z,3.26
2023-03-06T07:21:09.943Z,3.07
2023-03-06T07:22:12.177Z,3.20
2023-03-06T07:23:14.582Z,3.02
2023-03-06T07:24:17.224Z,3.16
2023-03-06T07:25:20.061Z,3.06
2023-03-06T07:26:23.207Z,3.04
2023-03-06T07:27:26.186Z,3.14
2023-03-06T07:28:28.483Z,3.31
2023-03-06T07:29:32.915Z,3.14
2023-03-06T07:30:35.308Z,3.11
2023-03-06T07:31:37.599Z,3.02
2023-03-06T07:32:39.941Z,2.88
2023-03-06T07:33:42.300Z,2.92
2023-03-06T07:34:45.284Z,2.88
2023-03-06T07:35:48.116Z,2.83
2023-03-06T07:36:50.788Z,3.03
2023-03-06T07:37:53.842Z,2.97
2023-03-06T07:38:56.073Z,3.00
2023-03-06T07:39:58.498Z,2.90
2023-03-06T07:41:00.695Z,3.04
2023-03-06T07:42:02.976Z,3.07
2023-03-06T07:43:18.857Z,3.04
2023-03-06T07:44:31.825Z,3.02
2023-03-06T07:45:34.644Z,2.99
2023-03-06T07:46:36.956Z,3.00
2023-03-06T07:47:40.121Z,3.09
2023-03-06T07:48:42.990Z,3.00
2023-03-06T07:49:45.220Z,3.22
2023-03-06T07:50:59.756Z,3.15
2023-03-06T07:52:02.306Z,3.13
2023-03-06T07:53:04.635Z,2.99
2023-03-06T07:54:06.873Z,2.91
2023-03-06T07:55:09.815Z,3.08
2023-03-06T07:56:13.186Z,2.94
2023-03-06T07:57:16.255Z,2.91
2023-03-06T07:58:18.619Z,2.86
2023-03-06T07:59:21.076Z,2.86
2023-03-06T08:00:23.703Z,2.86
2023-03-06T08:01:26.389Z,2.93
2023-03-06T08:02:28.684Z,2.94
2023-03-06T08:03:31.233Z,3.00
2023-03-06T08:04:34.291Z,2.91
2023-03-06T08:05:36.651Z,2.91
2023-03-06T08:06:38.890Z,3.05
2023-03-06T08:07:42.262Z,2.98
2023-03-06T08:08:46.191Z,3.03
2023-03-06T08:09:48.797Z,2.86
2023-03-06T08:10:51.180Z,2.87
2023-03-06T08:11:53.338Z,3.08
2023-03-06T08:12:55.614Z,3.13
2023-03-06T08:13:58.187Z,2.94
2023-03-06T08:15:00.506Z,2.98
2023-03-06T08:16:03.019Z,3.20
2023-03-06T08:17:05.259Z,3.12
2023-03-06T08:18:07.465Z,2.95
2023-03-06T08:19:09.730Z,3.03
2023-03-06T08:20:13.036Z,3.08
2023-03-06T08:21:17.563Z,3.02
2023-03-06T08:22:19.704Z,3.11
2023-03-06T08:23:21.825Z,3.06
2023-03-06T08:24:24.052Z,3.04
2023-03-06T08:25:26.290Z,3.17
2023-03-06T08:26:31.452Z,3.30
2023-03-06T08:27:34.996Z,3.16
2023-03-06T08:28:37.354Z,3.20
2023-03-06T08:29:39.679Z,3.07
2023-03-06T08:30:42.602Z,3.04
2023-03-06T08:31:46.938Z,3.12
2023-03-06T08:32:49.216Z,3.11
2023-03-06T08:33:51.899Z,3.24
2023-03-06T08:34:54.230Z,3.28
2023-03-06T08:35:56.425Z,3.04
2023-03-06T08:36:58.667Z,3.05
2023-03-06T08:38:00.870Z,3.06
2023-03-06T08:39:04.416Z,2.98
2023-03-06T08:40:07.263Z,3.03
2023-03-06T08:41:09.785Z,3.13
2023-03-06T08:42:11.992Z,3.12
2023-03-06T08:43:14.440Z,3.11
2023-03-06T08:44:17.016Z,3.17
2023-03-06T08:45:19.234Z,3.02
2023-03-06T08:46:23.742Z,2.95
2023-03-06T08:47:25.984Z,2.99
2023-03-06T08:48:28.335Z,3.13
2023-03-06T08:49:30.522Z,3.28
2023-03-06T08:50:32.766Z,3.23
2023-03-06T08:51:35.754Z,3.41
2023-03-06T08:52:38.208Z,3.33
2023-03-06T08:53:43.487Z,3.28
2023-03-06T08:54:46.373Z,3.26
2023-03-06T08:55:48.723Z,3.29
2023-03-06T08:56:50.954Z,3.23
2023-03-06T08:57:53.150Z,3.40
2023-03-06T08:58:56.641Z,3.57
2023-03-06T08:59:58.932Z,3.56
2023-03-06T09:01:03.680Z,3.54
2023-03-06T09:02:07.514Z,3.58
2023-03-06T09:03:09.802Z,3.55
2023-03-06T09:04:12.268Z,3.55
2023-03-06T09:05:14.549Z,3.52
2023-03-06T09:06:17.163Z,3.43
2023-03-06T09:07:19.567Z,3.40
2023-03-06T09:08:21.833Z,3.32
2023-03-06T09:09:24.008Z,3.36
2023-03-06T09:10:29.157Z,3.59
2023-03-06T09:11:31.813Z,3.47
2023-03-06T09:12:47.339Z,3.62
2023-03-06T09:13:52.438Z,3.60
2023-03-06T09:14:54.660Z,3.63
2023-03-06T09:15:56.880Z,3.45
2023-03-06T09:16:59.222Z,3.52
2023-03-06T09:18:01.454Z,3.45
2023-03-06T09:19:03.743Z,3.41
2023-03-06T09:20:10.519Z,3.31
2023-03-06T09:21:12.912Z,3.37
2023-03-06T09:22:15.164Z,3.41
2023-03-06T09:23:17.486Z,3.48
2023-03-06T09:24:19.752Z,3.48
2023-03-06T09:25:23.242Z,3.41
2023-03-06T09:26:39.581Z,3.34
2023-03-06T09:27:58.292Z,3.41
2023-03-06T09:29:07.826Z,3.42
2023-03-06T09:30:12.592Z,3.59
2023-03-06T09:31:17.131Z,3.56
2023-03-06T09:32:19.340Z,3.56
2023-03-06T09:33:21.854Z,3.65
2023-03-06T09:34:24.146Z,3.61
2023-03-06T09:35:26.374Z,3.84
2023-03-06T09:36:28.676Z,3.80
2023-03-06T09:37:31.006Z,3.71
2023-03-06T09:38:33.404Z,3.87
2023-03-06T09:39:36.028Z,4.11
2023-03-06T09:41:15.493Z,4.26
2023-03-06T09:42:21.436Z,4.08
2023-03-06T09:43:38.089Z,4.10
2023-03-06T09:44:41.200Z,4.12
2023-03-06T09:45:43.603Z,4.10
2023-03-06T09:47:16.417Z,4.10
2023-03-06T09:48:27.980Z,4.32
2023-03-06T09:49:51.066Z,4.21
2023-03-06T09:51:10.634Z,4.35
2023-03-06T09:52:12.987Z,4.56
2023-03-06T09:53:24.114Z,4.39
2023-03-06T09:54:46.910Z,4.35
2023-03-06T09:55:58.113Z,4.02
2023-03-06T09:57:00.571Z,3.96
2023-03-06T09:58:11.341Z,4.19
2023-03-06T09:59:19.742Z,4.10
2023-03-06T10:00:32.299Z,4.16
2023-03-06T10:01:38.167Z,4.53
2023-03-06T10:02:44.474Z,4.54
2023-03-06T10:03:56.430Z,4.58
2023-03-06T10:05:04.064Z,4.31
2023-03-06T10:06:24.347Z,4.14
2023-03-06T10:07:59.378Z,4.23
2023-03-06T10:09:06.972Z,4.35
2023-03-06T10:10:17.337Z,4.12
2023-03-06T10:11:32.977Z,4.44
2023-03-06T10:13:01.240Z,4.56
2023-03-06T10:14:17.326Z,4.57
2023-03-06T10:15:25.689Z,4.47
2023-03-06T10:16:30.616Z,4.81
2023-03-06T10:17:41.491Z,4.75
2023-03-06T10:18:43.708Z,4.88
2023-03-06T10:19:47.625Z,4.71
2023-03-06T10:20:56.127Z,4.53
2023-03-06T10:22:24.378Z,4.31
2023-03-06T10:23:35.623Z,4.26
2023-03-06T10:25:00.349Z,4.56
2023-03-06T10:26:12.887Z,4.72
2023-03-06T10:27:42.853Z,4.51
2023-03-06T10:28:55.605Z,4.68
2023-03-06T10:30:27.742Z,4.57
2023-03-06T10:31:32.014Z,4.82
2023-03-06T10:32:51.009Z,4.85
2023-03-06T10:34:06.953Z,4.69
2023-03-06T10:35:25.550Z,4.73
2023-03-06T10:36:29.088Z,4.72
2023-03-06T10:37:32.561Z,4.58
2023-03-06T10:38:38.463Z,4.57
2023-03-06T10:39:41.028Z,4.44
2023-03-06T10:40:52.003Z,4.48
2023-03-06T10:41:55.518Z,4.54
2023-03-06T10:43:10.882Z,4.61
2023-03-06T10:44:13.538Z,5.16
2023-03-06T10:45:17.435Z,4.94
2023-03-06T10:46:28.341Z,4.62
2023-03-06T10:47:35.264Z,4.90
2023-03-06T10:48:42.002Z,5.05
2023-03-06T10:49:57.812Z,5.13
2023-03-06T10:51:20.040Z,5.32
2023-03-06T10:52:22.898Z,5.32
2023-03-06T10:53:29.027Z,5.17
2023-03-06T10:54:37.583Z,5.36
2023-03-06T10:55:40.051Z,5.19
2023-03-06T10:56:44.611Z,5.47
2023-03-06T10:57:46.876Z,5.41
2023-03-06T10:59:05.376Z,5.58
2023-03-06T11:00:28.859Z,5.80
2023-03-06T11:01:31.233Z,5.98
2023-03-06T11:02:36.619Z,6.23
2023-03-06T11:03:38.840Z,6.20
2023-03-06T11:04:46.002Z,6.05
2023-03-06T11:06:05.285Z,5.97
2023-03-06T11:07:19.547Z,6.31
2023-03-06T11:08:22.892Z,5.87
2023-03-06T11:09:26.239Z,5.75
2023-03-06T11:10:30.383Z,5.71
2023-03-06T11:11:37.839Z,6.08
2023-03-06T11:12:42.507Z,5.99
2023-03-06T11:13:44.915Z,5.83
2023-03-06T11:14:47.177Z,6.11
2023-03-06T11:15:58.346Z,5.91
2023-03-06T11:17:00.601Z,5.63
2023-03-06T11:18:07.411Z,5.97
2023-03-06T11:19:20.721Z,5.95
2023-03-06T11:20:44.618Z,6.10
2023-03-06T11:22:18.403Z,5.98
2023-03-06T11:23:44.413Z,5.84
2023-03-06T11:24:50.621Z,6.08
2023-03-06T11:25:59.741Z,6.25
2023-03-06T11:27:30.362Z,6.13
2023-03-06T11:28:44.079Z,5.68
2023-03-06T11:29:49.992Z,5.90
2023-03-06T11:31:06.470Z,5.97
2023-03-06T11:32:16.653Z,5.80
2023-03-06T11:33:27.681Z,5.58
2023-03-06T11:35:05.345Z,5.41
2023-03-06T11:36:16.065Z,5.53
2023-03-06T11:37:21.740Z,5.64
2023-03-06T11:38:44.628Z,5.60
2023-03-06T11:39:53.344Z,5.55
2023-03-06T11:41:02.173Z,5.37
2023-03-06T11:42:16.152Z,5.72
2023-03-06T11:43:32.369Z,5.73
2023-03-06T11:44:54.114Z,5.85
2023-03-06T11:46:15.378Z,6.17
2023-03-06T11:47:23.134Z,5.98
2023-03-06T11:48:37.935Z,6.00
2023-03-06T11:50:04.848Z,5.98
2023-03-06T11:51:14.929Z,6.07
2023-03-06T11:52:27.384Z,5.92
2023-03-06T11:53:32.320Z,6.15
2023-03-06T11:54:34.596Z,6.00
2023-03-06T11:55:44.734Z,5.91
2023-03-06T11:56:56.092Z,6.04
2023-03-06T11:58:27.621Z,5.84
2023-03-06T11:59:44.058Z,5.89
2023-03-06T12:01:05.214Z,5.84
2023-03-06T12:02:33.233Z,5.94
2023-03-06T12:04:20.226Z,6.27
2023-03-06T12:05:55.895Z,6.12
2023-03-06T12:07:05.549Z,6.14
2023-03-06T12:08:12.658Z,6.17
2023-03-06T12:09:46.259Z,6.42
2023-03-06T12:11:19.954Z,5.77
2023-03-06T12:12:43.862Z,5.63
2023-03-06T12:14:05.587Z,5.35
2023-03-06T12:15:17.199Z,5.54
2023-03-06T12:16:28.195Z,5.38
2023-03-06T12:17:50.745Z,5.46
2023-03-06T12:19:01.116Z,5.46
2023-03-06T12:20:23.521Z,5.29
2023-03-06T12:21:28.371Z,5.29
2023-03-06T12:22:42.197Z,5.45
2023-03-06T12:24:08.420Z,5.48
2023-03-06T12:25:27.734Z,5.34
2023-03-06T12:26:50.610Z,5.29
2023-03-06T12:28:20.406Z,5.20
2023-03-06T12:29:34.575Z,5.15
2023-03-06T12:31:17.292Z,5.30
2023-03-06T12:32:19.648Z,5.41
2023-03-06T12:34:00.202Z,5.33
2023-03-06T12:35:31.344Z,5.37
2023-03-06T12:36:51.522Z,5.17
2023-03-06T12:38:23.452Z,5.08
2023-03-06T12:40:10.773Z,5.44
2023-03-06T12:41:27.093Z,5.35
2023-03-06T12:43:10.168Z,5.29
2023-03-06T12:44:27.270Z,5.17
2023-03-06T12:45:36.962Z,5.01
2023-03-06T12:46:44.922Z,5.16
2023-03-06T12:47:54.621Z,5.20
2023-03-06T12:49:09.277Z,5.35
2023-03-06T12:50:24.069Z,5.51
2023-03-06T12:51:26.534Z,5.55
2023-03-06T12:52:31.748Z,5.67
2023-03-06T12:53:34.624Z,5.98
2023-03-06T12:54:39.738Z,6.12
2023-03-06T12:55:50.109Z,6.18
2023-03-06T12:56:53.911Z,5.89
2023-03-06T12:57:56.151Z,5.73
2023-03-06T12:59:02.371Z,5.94
2023-03-06T13:00:06.380Z,6.18
2023-03-06T13:01:27.969Z,5.84
2023-03-06T13:02:53.264Z,5.77
2023-03-06T13:04:27.902Z,5.70
2023-03-06T13:06:03.735Z,5.83
2023-03-06T13:07:05.902Z,5.69
2023-03-06T13:08:31.580Z,6.08
2023-03-06T13:10:10.944Z,5.91
2023-03-06T13:11:49.945Z,6.31
2023-03-06T13:12:56.180Z,5.81
2023-03-06T13:13:58.507Z,5.67
2023-03-06T13:15:30.644Z,5.50
2023-03-06T13:16:34.617Z,5.61
2023-03-06T13:17:38.473Z,5.48
2023-03-06T13:18:40.633Z,5.27
2023-03-06T13:19:42.808Z,5.08
2023-03-06T13:20:45.709Z,5.28
2023-03-06T13:22:01.718Z,5.26
2023-03-06T13:23:38.292Z,5.28
2023-03-06T13:24:40.559Z,5.21
2023-03-06T13:25:48.427Z,5.38
2023-03-06T13:26:55.522Z,5.51
2023-03-06T13:27:57.728Z,5.87
2023-03-06T13:29:00.133Z,5.94
2023-03-06T13:30:21.081Z,5.89
2023-03-06T13:31:36.326Z,5.88
2023-03-06T13:32:38.697Z,5.84
2023-03-06T13:33:43.507Z,5.96
2023-03-06T13:34:50.274Z,6.11
2023-03-06T13:35:55.516Z,6.00
2023-03-06T13:37:19.890Z,5.98
2023-03-06T13:38:32.237Z,5.76
2023-03-06T13:40:00.341Z,5.60
2023-03-06T13:41:20.547Z,5.54
2023-03-06T13:42:32.804Z,5.69
2023-03-06T13:43:43.499Z,5.88
2023-03-06T13:44:50.859Z,5.65
2023-03-06T13:45:54.008Z,5.58
2023-03-06T13:47:00.561Z,5.68
2023-03-06T13:49:26.219Z,5.76
2023-03-06T13:50:48.457Z,5.65
2023-03-06T13:51:53.401Z,5.68
2023-03-06T13:53:07.371Z,5.53
2023-03-06T13:54:20.646Z,5.67
2023-03-06T13:55:51.518Z,5.73
2023-03-06T13:57:13.944Z,5.41
2023-03-06T13:58:33.470Z,5.37
2023-03-06T14:00:10.031Z,5.30
2023-03-06T14:01:19.120Z,5.33
2023-03-06T14:02:50.464Z,5.50
2023-03-06T14:04:11.250Z,5.42
2023-03-06T14:05:16.686Z,5.39
2023-03-06T14:06:42.036Z,5.39
2023-03-06T14:07:46.904Z,5.21
2023-03-06T14:08:49.446Z,5.47
2023-03-06T14:10:14.448Z,5.48
2023-03-06T14:11:20.837Z,5.04
2023-03-06T14:12:28.596Z,5.01
2023-03-06T14:13:47.382Z,5.09
2023-03-06T14:14:59.158Z,5.23
2023-03-06T14:16:01.447Z,5.05
2023-03-06T14:17:05.308Z,5.22
2023-03-06T14:18:15.842Z,5.10
2023-03-06T14:19:19.193Z,5.14
2023-03-06T14:20:26.684Z,4.91
2023-03-06T14:21:42.053Z,4.99
2023-03-06T14:22:44.263Z,4.85
2023-03-06T14:23:47.248Z,4.94
2023-03-06T14:24:56.497Z,4.91
2023-03-06T14:26:18.980Z,5.13
2023-03-06T14:27:36.808Z,5.24
2023-03-06T14:28:39.065Z,5.22
2023-03-06T14:29:41.280Z,5.28
2023-03-06T14:30:50.242Z,5.16
2023-03-06T14:31:57.572Z,4.90
2023-03-06T14:32:59.918Z,4.90
2023-03-06T14:34:07.868Z,4.80
2023-03-06T14:35:21.731Z,5.09
2023-03-06T14:36:31.515Z,5.23
2023-03-06T14:37:37.149Z,5.36
2023-03-06T14:38:45.854Z,5.35
2023-03-06T14:39:49.242Z,4.97
2023-03-06T14:40:52.395Z,4.95
2023-03-06T14:42:24.746Z,4.77
2023-03-06T14:43:27.355Z,4.69
2023-03-06T14:44:29.649Z,4.84
2023-03-06T14:45:32.184Z,4.83
2023-03-06T14:46:34.523Z,4.57
2023-03-06T14:47:37.146Z,4.46
2023-03-06T14:48:42.846Z,4.46
2023-03-06T14:49:45.113Z,4.43
2023-03-06T14:50:57.687Z,4.35
2023-03-06T14:52:03.920Z,4.53
2023-03-06T14:53:19.146Z,4.62